Time;durP1;ratioP1;P1;durP2;ratioP2;P2;SDS_P1;SDS_P2;PMS_P1;PMS_P2;Temp;Humidity;BMP_temperature;BMP_pressure;BME280_temperature;BME280_humidity;BME280_pressure;Samples;Min_cycle;Max_cycle;Signal;HPM_P1;HPM_P2
2023/09/21 00:01:38;;;;;;;3.17;1.95;;;21.90;58.40;;;;;;4797332;29;20204;-29
2023/09/21 00:04:08;;;;;;;6.93;1.63;;;21.90;58.50;;;;;;4797279;29;20731;-29
2023/09/21 00:06:37;;;;;;;3.60;1.90;;;21.90;58.40;;;;;;4797451;29;20217;-28
2023/09/21 00:09:08;;;;;;;4.35;1.83;;;21.90;58.50;;;;;;4797287;29;20300;-29
2023/09/21 00:11:36;;;;;;;5.70;2.20;;;21.90;58.40;;;;;;4798668;29;20232;-29
2023/09/21 00:14:06;;;;;;;6.22;2.58;;;22.00;58.50;;;;;;4797028;29;20220;-29
2023/09/21 00:16:36;;;;;;;4.30;2.15;;;22.00;58.30;;;;;;4797865;29;20595;-29
2023/09/21 00:19:10;;;;;;;4.60;1.70;;;21.90;58.40;;;;;;4799258;29;20250;-29
2023/09/21 00:21:39;;;;;;;4.15;1.98;;;22.00;58.50;;;;;;4797215;29;20647;-29
2023/09/21 00:24:12;;;;;;;4.20;1.95;;;21.90;58.40;;;;;;4782423;29;20221;-29
2023/09/21 00:26:45;;;;;;;3.00;1.80;;;21.90;58.30;;;;;;4798316;29;20209;-29
2023/09/21 00:29:15;;;;;;;4.80;1.75;;;21.90;58.40;;;;;;4798865;29;20273;-29
2023/09/21 00:31:43;;;;;;;5.50;2.20;;;21.90;58.40;;;;;;4798364;29;20260;-29
2023/09/21 00:34:11;;;;;;;7.63;2.00;;;21.90;58.40;;;;;;4796824;29;20910;-29
2023/09/21 00:36:45;;;;;;;4.22;2.38;;;21.90;58.40;;;;;;4798975;29;20588;-29
2023/09/21 00:39:12;;;;;;;4.95;1.80;;;21.90;58.40;;;;;;4797021;29;20233;-28
2023/09/21 00:41:40;;;;;;;5.28;1.90;;;21.90;58.30;;;;;;4797334;29;20212;-29
2023/09/21 00:44:10;;;;;;;3.10;1.92;;;21.90;58.40;;;;;;4783383;29;20297;-29
2023/09/21 00:46:38;;;;;;;4.75;1.80;;;21.90;58.40;;;;;;4802134;29;20307;-29
2023/09/21 00:49:08;;;;;;;4.15;1.75;;;21.90;58.30;;;;;;4801612;29;20213;-29
2023/09/21 00:51:40;;;;;;;5.43;1.75;;;21.90;58.30;;;;;;4801644;29;20256;-29
2023/09/21 00:54:12;;;;;;;2.85;1.60;;;21.90;58.30;;;;;;4800676;29;20700;-29
2023/09/21 00:56:40;;;;;;;4.57;1.80;;;21.90;58.40;;;;;;4800253;29;20213;-29
2023/09/21 00:59:15;;;;;;;3.22;1.83;;;21.90;58.30;;;;;;4800017;29;20217;-29
2023/09/21 01:01:45;;;;;;;3.03;1.80;;;21.80;58.30;;;;;;4801216;29;20703;-29
2023/09/21 01:04:14;;;;;;;2.88;2.05;;;21.80;58.30;;;;;;4788798;29;20679;-29
2023/09/21 01:06:42;;;;;;;4.95;2.20;;;21.80;58.30;;;;;;4800950;29;20257;-29
2023/09/21 01:09:13;;;;;;;4.75;1.95;;;21.80;58.30;;;;;;4814532;29;20259;-29
2023/09/21 01:11:43;;;;;;;3.53;1.50;;;21.80;58.30;;;;;;4799590;29;20586;-29
2023/09/21 01:14:12;;;;;;;4.07;1.77;;;21.80;58.20;;;;;;4799859;29;20571;-29
2023/09/21 01:16:40;;;;;;;5.15;1.83;;;21.80;58.30;;;;;;4800870;29;20848;-29
2023/09/21 01:19:09;;;;;;;3.25;1.95;;;21.80;58.30;;;;;;4781621;30;20880;-29
2023/09/21 01:21:42;;;;;;;5.60;1.88;;;21.80;58.30;;;;;;4795926;29;20727;-29
2023/09/21 01:24:11;;;;;;;4.90;1.88;;;21.80;58.20;;;;;;4799449;29;20236;-29
2023/09/21 01:26:46;;;;;;;3.40;1.65;;;21.80;58.20;;;;;;4801053;29;20762;-29
2023/09/21 01:29:13;;;;;;;3.03;1.73;;;21.70;58.20;;;;;;4814635;29;20221;-29
2023/09/21 01:31:40;;;;;;;3.65;1.67;;;21.70;58.20;;;;;;4799963;29;20241;-33
2023/09/21 01:34:12;;;;;;;4.32;1.70;;;21.70;58.20;;;;;;4799770;29;20225;-33
2023/09/21 01:36:46;;;;;;;4.80;1.65;;;21.70;58.20;;;;;;4799699;29;20232;-33
2023/09/21 01:39:13;;;;;;;3.45;1.75;;;21.70;58.10;;;;;;4814356;29;20311;-33
2023/09/21 01:41:41;;;;;;;2.55;1.73;;;21.70;58.10;;;;;;4800563;29;20565;-33
2023/09/21 01:44:11;;;;;;;3.38;1.83;;;21.60;58.20;;;;;;4784724;29;20248;-33
2023/09/21 01:46:38;;;;;;;2.25;1.60;;;21.60;58.20;;;;;;4784334;29;20227;-33
2023/09/21 01:49:05;;;;;;;3.75;1.83;;;21.60;58.20;;;;;;4814284;29;20350;-33
2023/09/21 01:51:34;;;;;;;2.47;1.63;;;21.60;58.20;;;;;;4800592;29;20320;-33
2023/09/21 01:54:03;;;;;;;2.60;1.70;;;21.60;58.10;;;;;;4799494;29;20336;-33
2023/09/21 01:56:31;;;;;;;2.70;1.50;;;21.60;58.10;;;;;;4813255;29;20270;-33
2023/09/21 01:59:05;;;;;;;5.85;2.08;;;21.60;58.10;;;;;;4799480;29;21064;-34
2023/09/21 02:01:33;;;;;;;3.03;1.50;;;21.60;58.10;;;;;;4800506;29;20613;-33
2023/09/21 02:04:00;;;;;;;7.18;1.90;;;21.50;58.10;;;;;;4799054;29;20712;-33
2023/09/21 02:06:30;;;;;;;2.78;1.85;;;21.50;58.10;;;;;;4801195;29;20205;-33
2023/09/21 02:08:57;;;;;;;2.30;1.30;;;21.50;58.10;;;;;;4800355;29;20695;-33
2023/09/21 02:11:27;;;;;;;3.28;1.90;;;21.50;58.10;;;;;;4799277;29;20236;-34
2023/09/21 02:13:54;;;;;;;4.53;1.67;;;21.50;58.10;;;;;;4800385;29;20209;-33
2023/09/21 02:16:24;;;;;;;2.45;1.73;;;21.50;58.10;;;;;;4798707;29;20300;-33
2023/09/21 02:18:52;;;;;;;2.53;1.83;;;21.50;58.10;;;;;;4798675;29;20213;-33
2023/09/21 02:21:24;;;;;;;4.75;1.63;;;21.40;58.00;;;;;;4813503;29;20345;-33
2023/09/21 02:23:54;;;;;;;2.95;2.10;;;21.40;58.00;;;;;;4813815;29;20217;-32
2023/09/21 02:26:21;;;;;;;3.65;2.03;;;21.40;58.10;;;;;;4800034;29;20213;-33
2023/09/21 02:28:53;;;;;;;2.55;1.75;;;21.40;58.10;;;;;;4799925;29;20311;-33
2023/09/21 02:31:22;;;;;;;2.85;1.60;;;21.40;58.10;;;;;;4799948;29;20240;-33
2023/09/21 02:33:50;;;;;;;3.42;1.77;;;21.40;58.10;;;;;;4798323;29;20216;-33
2023/09/21 02:36:19;;;;;;;3.33;1.55;;;21.40;58.10;;;;;;4798431;29;20220;-33
2023/09/21 02:38:52;;;;;;;5.88;1.40;;;21.40;58.10;;;;;;4799965;29;20228;-33
2023/09/21 02:41:23;;;;;;;2.00;1.42;;;21.40;58.10;;;;;;4784118;29;20232;-33
2023/09/21 02:43:50;;;;;;;4.53;2.00;;;21.40;58.10;;;;;;4813875;29;20237;-33
2023/09/21 02:46:17;;;;;;;3.95;1.90;;;21.40;58.40;;;;;;4798095;29;20237;-33
2023/09/21 02:48:44;;;;;;;2.00;1.60;;;21.40;58.20;;;;;;4813703;29;20266;-33
2023/09/21 02:51:13;;;;;;;4.15;1.92;;;21.40;58.20;;;;;;4799594;29;20549;-33
2023/09/21 02:53:43;;;;;;;3.75;1.80;;;21.40;58.20;;;;;;4813225;29;20229;-33
2023/09/21 02:56:13;;;;;;;5.30;2.00;;;21.40;58.20;;;;;;4797910;29;20304;-33
2023/09/21 02:58:42;;;;;;;3.28;1.50;;;21.40;58.20;;;;;;4813000;29;20216;-33
2023/09/21 03:01:11;;;;;;;2.88;1.83;;;21.40;58.20;;;;;;4799408;29;20209;-33
2023/09/21 03:03:41;;;;;;;2.25;1.67;;;21.40;58.20;;;;;;4799356;29;20763;-33
2023/09/21 03:06:08;;;;;;;3.88;1.70;;;21.50;58.20;;;;;;4799663;29;20694;-33
2023/09/21 03:08:38;;;;;;;2.28;1.80;;;21.50;58.20;;;;;;4797937;29;20224;-33
2023/09/21 03:11:10;;;;;;;2.95;2.00;;;21.50;58.20;;;;;;4799320;29;20316;-33
2023/09/21 03:13:40;;;;;;;3.30;1.80;;;21.50;58.20;;;;;;4799367;29;20447;-32
2023/09/21 03:16:12;;;;;;;2.78;1.42;;;21.50;58.20;;;;;;4813069;29;20215;-33
2023/09/21 03:18:41;;;;;;;2.88;1.73;;;21.50;58.20;;;;;;4799430;29;20209;-33
2023/09/21 03:21:15;;;;;;;3.53;1.70;;;21.50;58.20;;;;;;4798607;29;20205;-33
2023/09/21 03:23:44;;;;;;;2.85;1.90;;;21.50;58.20;;;;;;4797801;29;20209;-33
2023/09/21 03:26:13;;;;;;;3.53;1.70;;;21.50;58.20;;;;;;4798991;29;20235;-33
2023/09/21 03:28:44;;;;;;;3.78;2.08;;;21.50;58.20;;;;;;4798934;29;20271;-33
2023/09/21 03:31:16;;;;;;;5.65;1.77;;;21.50;58.20;;;;;;4797654;29;20636;-33
2023/09/21 03:33:46;;;;;;;4.18;2.20;;;21.50;58.20;;;;;;4799125;29;20209;-33
2023/09/21 03:36:14;;;;;;;3.92;1.70;;;21.50;58.20;;;;;;4799154;29;20287;-33
2023/09/21 03:38:41;;;;;;;4.65;2.10;;;21.50;58.10;;;;;;4782550;29;20221;-33
2023/09/21 03:41:10;;;;;;;3.53;1.90;;;21.50;58.20;;;;;;4797353;29;20929;-33
2023/09/21 03:43:37;;;;;;;4.35;1.98;;;21.50;58.20;;;;;;4797837;29;20688;-33
2023/09/21 03:46:07;;;;;;;4.28;1.77;;;21.50;58.20;;;;;;4812710;29;20730;-33
2023/09/21 03:48:37;;;;;;;2.80;1.90;;;21.60;58.20;;;;;;4797818;29;20225;-33
2023/09/21 03:51:05;;;;;;;2.97;1.90;;;21.60;58.20;;;;;;4798832;29;20343;-33
2023/09/21 03:53:35;;;;;;;3.30;1.85;;;21.60;58.20;;;;;;4797587;29;20278;-33
2023/09/21 03:56:04;;;;;;;4.10;2.10;;;21.60;58.20;;;;;;4798972;29;20222;-33
2023/09/21 03:58:31;;;;;;;3.00;1.73;;;21.50;58.20;;;;;;4812688;29;20225;-33
2023/09/21 04:01:04;;;;;;;2.63;2.25;;;21.50;58.20;;;;;;4782724;29;20201;-33
2023/09/21 04:03:35;;;;;;;3.25;1.90;;;21.50;58.20;;;;;;4812124;29;20205;-33
2023/09/21 04:06:03;;;;;;;3.03;1.70;;;21.50;58.20;;;;;;4798838;29;20220;-33
2023/09/21 04:08:31;;;;;;;3.55;1.63;;;21.50;58.20;;;;;;4797491;29;20228;-29
2023/09/21 04:10:59;;;;;;;2.90;1.90;;;21.50;58.30;;;;;;4798638;29;20201;-29
2023/09/21 04:13:29;;;;;;;3.00;1.90;;;21.50;58.20;;;;;;4797423;29;20616;-29
2023/09/21 04:15:58;;;;;;;5.68;2.30;;;21.50;58.20;;;;;;4798521;29;20221;-29
2023/09/21 04:18:30;;;;;;;4.93;1.90;;;21.50;58.20;;;;;;4798097;29;20209;-29
2023/09/21 04:20:59;;;;;;;3.60;2.15;;;21.50;58.20;;;;;;4815654;29;20582;-29
2023/09/21 04:23:44;;;;;;;3.17;1.80;;;21.50;58.20;;;;;;4813592;29;20626;-29
2023/09/21 04:26:15;;;;;;;2.78;1.92;;;21.50;58.30;;;;;;4801843;29;20232;-29
2023/09/21 04:28:46;;;;;;;3.38;2.20;;;21.50;58.30;;;;;;4800731;29;20209;-29
2023/09/21 04:31:13;;;;;;;4.57;1.88;;;21.50;58.30;;;;;;4786007;29;20248;-29
2023/09/21 04:33:43;;;;;;;4.55;2.10;;;21.50;58.30;;;;;;4816286;29;20702;-29
2023/09/21 04:36:10;;;;;;;3.47;2.10;;;21.40;58.40;;;;;;4815450;29;20212;-29
2023/09/21 04:38:42;;;;;;;3.80;1.80;;;21.40;58.30;;;;;;4802071;29;20274;-29
2023/09/21 04:41:15;;;;;;;4.20;1.85;;;21.40;58.30;;;;;;4800355;29;20205;-29
2023/09/21 04:43:48;;;;;;;3.00;2.15;;;21.40;58.40;;;;;;4801444;29;20241;-29
2023/09/21 04:46:17;;;;;;;4.10;1.98;;;21.40;58.40;;;;;;4814960;29;20205;-29
2023/09/21 04:48:46;;;;;;;5.07;1.90;;;21.40;58.40;;;;;;4814909;29;20268;-29
2023/09/21 04:51:17;;;;;;;3.33;1.95;;;21.40;58.40;;;;;;4801220;29;20220;-29
2023/09/21 04:53:47;;;;;;;4.53;1.80;;;21.40;58.50;;;;;;4801831;29;20220;-29
2023/09/21 04:56:17;;;;;;;4.85;2.30;;;21.40;58.50;;;;;;4815177;29;20300;-29
2023/09/21 04:58:47;;;;;;;3.20;2.30;;;21.40;58.60;;;;;;4800250;29;20248;-28
2023/09/21 05:01:18;;;;;;;3.38;1.83;;;21.40;58.60;;;;;;4814994;29;20763;-29
2023/09/21 05:03:50;;;;;;;3.25;2.00;;;21.40;58.70;;;;;;4814591;29;20205;-29
2023/09/21 05:06:21;;;;;;;6.53;2.10;;;21.40;58.70;;;;;;4801576;29;20284;-29
2023/09/21 05:08:49;;;;;;;4.80;2.20;;;21.40;58.70;;;;;;4815566;29;20208;-29
2023/09/21 05:11:18;;;;;;;3.28;2.30;;;21.40;58.80;;;;;;4800210;29;20211;-29
2023/09/21 05:13:46;;;;;;;4.20;2.05;;;21.40;58.80;;;;;;4785136;29;20654;-29
2023/09/21 05:16:17;;;;;;;5.30;2.30;;;21.40;58.80;;;;;;4801108;29;20244;-29
2023/09/21 05:18:47;;;;;;;4.50;2.28;;;21.40;58.80;;;;;;4801216;29;20216;-29
2023/09/21 05:21:17;;;;;;;4.40;2.15;;;21.40;58.90;;;;;;4799706;29;20210;-29
2023/09/21 05:23:46;;;;;;;3.00;2.00;;;21.40;58.90;;;;;;4799747;29;20220;-29
2023/09/21 05:26:13;;;;;;;5.30;2.28;;;21.40;58.90;;;;;;4801051;29;20229;-29
2023/09/21 05:28:40;;;;;;;4.90;2.05;;;21.40;59.00;;;;;;4800862;29;20740;-29
2023/09/21 05:31:10;;;;;;;4.32;2.28;;;21.30;59.00;;;;;;4799873;29;20247;-29
2023/09/21 05:33:37;;;;;;;3.63;2.10;;;21.30;59.00;;;;;;4800978;29;20233;-29
2023/09/21 05:36:09;;;;;;;4.97;2.03;;;21.30;59.10;;;;;;4814088;29;20220;-29
2023/09/21 05:38:37;;;;;;;5.43;2.45;;;21.30;59.20;;;;;;4799648;29;20216;-29
2023/09/21 05:41:06;;;;;;;7.43;2.63;;;21.30;59.20;;;;;;4813953;29;20292;-29
2023/09/21 05:43:33;;;;;;;5.55;2.42;;;21.30;59.20;;;;;;4814167;29;20272;-29
2023/09/21 05:46:00;;;;;;;5.40;2.40;;;21.30;59.30;;;;;;4814573;29;20216;-29
2023/09/21 05:48:28;;;;;;;4.65;2.38;;;21.20;59.30;;;;;;4801038;29;20232;-29
2023/09/21 05:50:59;;;;;;;4.93;2.63;;;21.20;59.30;;;;;;4799008;29;20225;-29
2023/09/21 05:53:30;;;;;;;6.53;3.00;;;21.20;59.40;;;;;;4800593;29;20228;-29
2023/09/21 05:56:04;;;;;;;4.22;2.60;;;21.20;59.40;;;;;;4800240;29;20488;-29
2023/09/21 05:58:31;;;;;;;5.00;2.60;;;21.20;59.50;;;;;;4799119;29;20221;-29
2023/09/21 06:01:01;;;;;;;4.47;2.55;;;21.20;59.50;;;;;;4800145;29;20212;-29
2023/09/21 06:03:31;;;;;;;4.05;2.40;;;21.20;59.50;;;;;;4813707;29;20580;-29
2023/09/21 06:05:59;;;;;;;6.60;2.65;;;21.10;59.40;;;;;;4800293;29;20225;-29
2023/09/21 06:08:29;;;;;;;7.88;3.17;;;21.10;59.60;;;;;;4784220;29;20224;-29
2023/09/21 06:10:56;;;;;;;6.25;2.53;;;21.10;59.70;;;;;;4800119;29;20674;-29
2023/09/21 06:13:26;;;;;;;10.10;2.83;;;21.10;59.70;;;;;;4800157;29;20256;-29
2023/09/21 06:15:56;;;;;;;5.20;2.83;;;21.10;59.80;;;;;;4814023;29;20239;-29
2023/09/21 06:18:24;;;;;;;5.38;2.53;;;21.10;59.80;;;;;;4800088;29;20271;-29
2023/09/21 06:20:56;;;;;;;6.85;2.90;;;21.10;59.80;;;;;;4799914;29;20217;-30
2023/09/21 06:23:28;;;;;;;6.57;2.85;;;21.00;59.80;;;;;;4784183;29;20256;-29
2023/09/21 06:25:55;;;;;;;4.75;3.00;;;21.00;59.90;;;;;;4798459;29;20233;-29
2023/09/21 06:28:24;;;;;;;5.35;2.95;;;21.00;60.00;;;;;;4799869;29;20244;-29
2023/09/21 06:30:57;;;;;;;7.07;3.10;;;21.00;60.00;;;;;;4813638;29;20307;-29
2023/09/21 06:33:27;;;;;;;6.43;2.72;;;21.00;60.10;;;;;;4798018;29;20290;-29
2023/09/21 06:35:54;;;;;;;6.20;2.78;;;21.00;60.10;;;;;;4799736;29;20197;-29
2023/09/21 06:38:22;;;;;;;3.47;2.20;;;21.00;60.10;;;;;;4813312;29;20229;-29
2023/09/21 06:40:51;;;;;;;4.15;2.70;;;20.90;60.20;;;;;;4812674;29;20261;-29
2023/09/21 06:43:27;;;;;;;4.43;2.72;;;20.90;60.20;;;;;;4799487;29;21051;-29
2023/09/21 06:45:58;;;;;;;5.82;2.50;;;20.90;60.30;;;;;;4798490;29;20262;-29
2023/09/21 06:48:25;;;;;;;6.68;2.72;;;20.90;60.40;;;;;;4799717;29;20266;-29
2023/09/21 06:50:53;;;;;;;6.40;2.55;;;20.90;60.40;;;;;;4782977;29;20286;-29
2023/09/21 06:53:23;;;;;;;5.20;2.60;;;20.90;60.40;;;;;;4799530;29;20431;-29
2023/09/21 06:55:56;;;;;;;7.05;2.70;;;20.90;60.50;;;;;;4799479;29;20208;-29
2023/09/21 06:58:30;;;;;;;4.30;2.30;;;20.90;60.50;;;;;;4799798;29;20309;-29
2023/09/21 07:01:02;;;;;;;4.70;2.42;;;20.90;60.60;;;;;;4799380;29;20208;-29
2023/09/21 07:03:29;;;;;;;5.65;2.40;;;20.90;60.70;;;;;;4798033;29;20761;-28
2023/09/21 07:05:57;;;;;;;5.22;2.63;;;20.90;60.70;;;;;;4799423;29;20623;-29
2023/09/21 07:08:29;;;;;;;3.92;2.45;;;20.90;60.90;;;;;;4797634;29;20672;-29
2023/09/21 07:10:59;;;;;;;5.93;2.25;;;20.90;61.00;;;;;;4799450;29;20277;-29
2023/09/21 07:13:29;;;;;;;3.88;2.10;;;20.90;61.00;;;;;;4797497;29;20252;-29
2023/09/21 07:15:58;;;;;;;4.45;2.53;;;20.90;61.00;;;;;;4799303;29;20245;-29
2023/09/21 07:18:28;;;;;;;3.60;2.60;;;21.00;61.20;;;;;;4797859;29;20296;-29
2023/09/21 07:20:55;;;;;;;4.38;2.53;;;21.00;61.10;;;;;;4812715;29;20209;-29
2023/09/21 07:23:22;;;;;;;4.70;2.53;;;21.00;61.20;;;;;;4797515;29;20570;-29
2023/09/21 07:25:53;;;;;;;4.68;2.22;;;21.00;61.20;;;;;;4798805;29;20224;-29
2023/09/21 07:28:23;;;;;;;7.32;2.50;;;21.00;61.30;;;;;;4799676;29;20274;-29
2023/09/21 07:30:55;;;;;;;5.78;2.65;;;21.00;61.40;;;;;;4799071;29;20261;-29
2023/09/21 07:33:26;;;;;;;5.88;2.78;;;21.00;61.40;;;;;;4812894;29;20725;-29
2023/09/21 07:35:56;;;;;;;4.57;2.08;;;21.10;61.50;;;;;;4813175;29;20571;-29
2023/09/21 07:38:27;;;;;;;4.70;2.20;;;21.10;61.60;;;;;;4812609;29;20933;-29
2023/09/21 07:41:03;;;;;;;5.28;1.83;;;21.10;61.60;;;;;;4783706;29;20576;-29
2023/09/21 07:43:36;;;;;;;2.63;1.70;;;21.10;61.60;;;;;;4798902;29;20792;-29
2023/09/21 07:46:05;;;;;;;2.47;1.30;;;21.10;61.60;;;;;;4812470;29;20217;-29
2023/09/21 07:48:33;;;;;;;2.83;1.00;;;21.10;61.50;;;;;;4798860;29;20205;-29
2023/09/21 07:51:04;;;;;;;2.95;1.40;;;21.10;61.40;;;;;;4798632;29;20489;-29
2023/09/21 07:53:33;;;;;;;4.20;1.48;;;21.00;61.50;;;;;;4799513;29;20233;-29
2023/09/21 07:56:05;;;;;;;3.97;1.20;;;21.00;61.50;;;;;;4801244;29;20312;-29
2023/09/21 07:58:32;;;;;;;4.90;1.65;;;21.00;61.50;;;;;;4802613;29;20581;-29
2023/09/21 08:01:00;;;;;;;3.30;1.65;;;20.90;61.40;;;;;;4815781;29;20643;-29
2023/09/21 08:03:31;;;;;;;5.10;1.60;;;20.90;61.30;;;;;;4785964;29;20232;-29
2023/09/21 08:06:03;;;;;;;5.93;1.92;;;20.80;61.30;;;;;;4815766;29;20246;-29
2023/09/21 08:08:34;;;;;;;6.38;2.08;;;20.80;61.50;;;;;;4815840;29;20216;-29
2023/09/21 08:11:01;;;;;;;4.15;1.38;;;20.70;61.50;;;;;;4802377;29;20759;-29
2023/09/21 08:13:32;;;;;;;2.13;1.20;;;20.70;61.70;;;;;;4802913;29;20229;-29
2023/09/21 08:15:59;;;;;;;3.35;1.52;;;20.70;61.70;;;;;;4802216;29;20225;-29
2023/09/21 08:18:36;;;;;;;3.25;1.60;;;20.60;61.60;;;;;;4815457;29;20217;-29
2023/09/21 08:21:09;;;;;;;4.90;1.83;;;20.60;61.70;;;;;;4802176;29;20220;-29
2023/09/21 08:23:42;;;;;;;6.75;1.73;;;20.50;61.80;;;;;;4800750;29;20706;-29
2023/09/21 08:26:14;;;;;;;2.42;1.60;;;20.50;61.90;;;;;;4801660;29;20646;-29
2023/09/21 08:28:41;;;;;;;11.65;2.65;;;20.50;62.10;;;;;;4801919;29;20596;-29
2023/09/21 08:31:10;;;;;;;6.53;3.28;;;20.50;62.20;;;;;;4802013;29;20690;-29
2023/09/21 08:33:40;;;;;;;5.63;3.47;;;20.50;62.30;;;;;;4802092;29;20467;-29
2023/09/21 08:36:09;;;;;;;5.20;2.38;;;20.50;62.40;;;;;;4802010;29;20221;-29
2023/09/21 08:38:38;;;;;;;7.85;2.85;;;20.50;62.40;;;;;;4801946;29;20205;-29
2023/09/21 08:41:10;;;;;;;7.05;2.70;;;20.50;62.60;;;;;;4815335;29;20209;-29
2023/09/21 08:43:40;;;;;;;5.95;2.55;;;20.50;62.60;;;;;;4785174;29;20241;-29
2023/09/21 08:46:11;;;;;;;6.28;2.78;;;20.50;62.70;;;;;;4814906;29;20223;-29
2023/09/21 08:48:44;;;;;;;24.90;3.60;;;20.50;62.80;;;;;;4800811;29;20201;-29
2023/09/21 08:51:18;;;;;;;6.47;3.00;;;20.50;62.80;;;;;;4814360;29;20212;-29
2023/09/21 08:53:50;;;;;;;5.43;2.58;;;20.50;62.90;;;;;;4801392;29;20306;-29
2023/09/21 08:56:44;;;;;;;5.32;2.63;;;20.60;63.20;;;;;;4801287;29;20220;-29
2023/09/21 08:59:15;;;;;;;5.10;2.30;;;20.70;63.20;;;;;;4801134;29;20209;-29
2023/09/21 09:01:46;;;;;;;4.45;2.10;;;20.70;63.20;;;;;;4799607;29;20661;-29
2023/09/21 09:04:18;;;;;;;3.92;2.58;;;20.70;63.20;;;;;;4801196;29;20244;-29
2023/09/21 09:06:49;;;;;;;9.95;2.90;;;20.80;63.40;;;;;;4801872;29;20266;-29
2023/09/21 09:09:19;;;;;;;12.35;3.90;;;20.80;63.40;;;;;;4785519;29;20755;-29
2023/09/21 09:11:50;;;;;;;7.47;2.72;;;20.80;63.40;;;;;;4801165;29;20692;-29
2023/09/21 09:14:21;;;;;;;8.15;2.58;;;20.90;63.50;;;;;;4799874;29;20260;-29
2023/09/21 09:16:51;;;;;;;6.63;2.78;;;20.90;63.50;;;;;;4801296;29;20233;-29
2023/09/21 09:19:21;;;;;;;4.18;3.08;;;21.00;63.60;;;;;;4801354;29;20306;-29
2023/09/21 09:21:54;;;;;;;6.63;3.17;;;21.00;63.70;;;;;;4799928;29;20668;-29
2023/09/21 09:24:22;;;;;;;4.05;2.30;;;21.10;63.80;;;;;;4785516;29;20660;-29
2023/09/21 09:26:50;;;;;;;6.68;2.33;;;21.10;63.70;;;;;;4815023;29;20475;-29
2023/09/21 09:29:22;;;;;;;3.70;2.40;;;21.20;63.70;;;;;;4800925;29;20566;-29
2023/09/21 09:31:49;;;;;;;4.80;2.20;;;21.20;63.70;;;;;;4799699;29;20667;-30
2023/09/21 09:34:18;;;;;;;3.33;2.20;;;21.20;63.70;;;;;;4800939;29;20239;-30
2023/09/21 09:36:51;;;;;;;5.47;2.30;;;21.20;63.90;;;;;;4814075;29;20220;-30
2023/09/21 09:39:21;;;;;;;13.57;3.22;;;21.30;63.70;;;;;;4800982;29;20244;-30
2023/09/21 09:41:57;;;;;;;15.18;3.20;;;21.30;63.70;;;;;;4814402;29;20692;-30
2023/09/21 09:44:32;;;;;;;12.20;2.65;;;21.30;63.70;;;;;;4800949;29;20280;-30
2023/09/21 09:47:08;;;;;;;4.03;2.15;;;21.30;63.70;;;;;;4814137;29;20220;-30
2023/09/21 09:49:38;;;;;;;5.22;2.45;;;21.30;63.70;;;;;;4800676;29;20239;-30
2023/09/21 09:52:10;;;;;;;5.10;2.42;;;21.40;63.80;;;;;;4799242;29;20311;-30
2023/09/21 09:54:41;;;;;;;5.60;2.17;;;21.40;64.00;;;;;;4814206;29;20256;-30
2023/09/21 09:57:13;;;;;;;9.50;3.08;;;21.40;63.90;;;;;;4800521;29;20749;-30
2023/09/21 09:59:42;;;;;;;13.48;3.03;;;21.40;63.90;;;;;;4799186;29;20209;-30
2023/09/21 10:02:17;;;;;;;15.02;3.80;;;21.40;63.80;;;;;;4799833;29;20213;-30
2023/09/21 10:04:49;;;;;;;12.02;3.38;;;21.40;64.00;;;;;;4800553;29;20707;-30
2023/09/21 10:07:17;;;;;;;10.25;2.40;;;21.40;63.90;;;;;;4813988;29;20216;-30
2023/09/21 10:09:45;;;;;;;5.55;2.28;;;21.40;63.90;;;;;;4798922;29;20745;-30
2023/09/21 10:12:15;;;;;;;25.23;4.78;;;21.40;64.00;;;;;;4800235;29;20213;-30
2023/09/21 10:14:48;;;;;;;9.45;2.90;;;21.40;63.90;;;;;;4800240;29;20236;-30
2023/09/21 10:17:27;;;;;;;17.50;3.28;;;21.40;63.90;;;;;;4799650;29;20213;-30
2023/09/21 10:20:14;;;;;;;12.93;3.30;;;21.40;64.00;;;;;;4813755;29;20224;-30
2023/09/21 10:22:44;;;;;;;15.10;3.88;;;21.40;64.10;;;;;;4800076;29;20217;-30
2023/09/21 10:25:13;;;;;;;12.20;2.58;;;21.40;64.00;;;;;;4784347;29;20350;-30
2023/09/21 10:27:46;;;;;;;17.02;4.35;;;21.40;64.10;;;;;;4800080;29;20769;-30
2023/09/21 10:30:18;;;;;;;5.93;2.38;;;21.40;64.00;;;;;;4799367;29;20233;-30
2023/09/21 10:32:49;;;;;;;4.88;2.42;;;21.50;64.10;;;;;;4798462;29;20528;-29
2023/09/21 10:35:44;;;;;;;3.83;2.03;;;21.50;64.20;;;;;;4799976;29;20200;-30
2023/09/21 10:38:13;;;;;;;3.78;2.15;;;21.50;64.70;;;;;;4800325;29;20216;-30
2023/09/21 10:40:40;;;;;;;3.00;2.03;;;21.50;64.10;;;;;;4813857;29;20281;-30
2023/09/21 10:43:36;;;;;;;4.43;1.90;;;21.50;64.10;;;;;;4798233;29;20330;-30
2023/09/21 10:46:21;;;;;;;8.75;2.30;;;21.50;64.30;;;;;;4799745;29;20220;-30
2023/09/21 10:49:07;;;;;;;4.18;1.60;;;21.50;64.40;;;;;;4799860;29;20244;-30
2023/09/21 10:51:41;;;;;;;5.75;1.52;;;21.50;64.20;;;;;;4799826;29;20285;-30
2023/09/21 10:54:15;;;;;;;3.65;1.42;;;21.40;64.10;;;;;;4799421;29;20244;-30
2023/09/21 10:56:42;;;;;;;3.65;1.50;;;21.40;64.10;;;;;;4799693;29;20212;-27
2023/09/21 10:59:11;;;;;;;3.15;1.83;;;21.40;64.10;;;;;;4799773;29;20217;-27
2023/09/21 11:01:44;;;;;;;1.67;1.05;;;21.30;64.00;;;;;;4798152;29;20205;-26
2023/09/21 11:04:14;;;;;;;3.70;1.20;;;21.30;64.00;;;;;;4798333;29;20223;-26
2023/09/21 11:06:41;;;;;;;2.30;1.20;;;21.20;63.90;;;;;;4813112;29;20616;-27
2023/09/21 11:09:11;;;;;;;2.45;1.00;;;21.20;64.00;;;;;;4798027;29;20296;-27
2023/09/21 11:11:38;;;;;;;2.85;1.00;;;21.10;63.90;;;;;;4799331;29;20213;-27
2023/09/21 11:14:05;;;;;;;2.75;0.95;;;21.10;63.90;;;;;;4813063;29;20232;-27
2023/09/21 11:16:37;;;;;;;4.60;1.20;;;21.00;63.90;;;;;;4799469;29;20259;-27
2023/09/21 11:19:10;;;;;;;3.72;0.90;;;21.00;64.00;;;;;;4799220;29;20283;-27
2023/09/21 11:21:38;;;;;;;2.92;1.15;;;20.90;64.10;;;;;;4797769;29;20217;-27
2023/09/21 11:24:09;;;;;;;1.20;0.95;;;20.90;64.10;;;;;;4799363;29;20217;-26
2023/09/21 11:26:45;;;;;;;3.17;1.20;;;20.80;64.10;;;;;;4797720;29;20220;-27
2023/09/21 11:29:22;;;;;;;2.63;0.82;;;20.80;64.20;;;;;;4812464;29;20684;-27
2023/09/21 11:31:52;;;;;;;4.28;1.00;;;20.80;64.20;;;;;;4799144;29;20584;-27
2023/09/21 11:34:22;;;;;;;3.72;1.17;;;20.70;64.20;;;;;;4798294;29;20240;-27
2023/09/21 11:36:52;;;;;;;2.35;1.15;;;20.70;64.30;;;;;;4797505;29;20653;-27
2023/09/21 11:39:29;;;;;;;2.33;1.10;;;20.70;64.40;;;;;;4797527;29;20875;-26
2023/09/21 11:41:58;;;;;;;6.32;1.23;;;20.70;64.50;;;;;;4799140;29;20601;-27
2023/09/21 11:44:29;;;;;;;2.78;1.00;;;20.70;64.50;;;;;;4798593;29;20268;-27
2023/09/21 11:47:01;;;;;;;4.00;1.33;;;20.70;64.50;;;;;;4798795;29;20216;-27
2023/09/21 11:49:40;;;;;;;1.65;1.13;;;20.60;64.30;;;;;;4799151;29;20205;-27
2023/09/21 11:52:09;;;;;;;4.18;1.20;;;20.60;64.50;;;;;;4799424;29;20758;-29
2023/09/21 11:54:42;;;;;;;2.72;1.40;;;20.60;64.50;;;;;;4813038;29;20232;-29
2023/09/21 11:57:11;;;;;;;5.70;1.38;;;20.50;64.50;;;;;;4799054;29;20213;-29
2023/09/21 11:59:42;;;;;;;2.00;0.90;;;20.50;64.50;;;;;;4812391;29;20624;-30
2023/09/21 12:02:16;;;;;;;2.22;1.20;;;20.50;64.50;;;;;;4799109;29;20316;-29
2023/09/21 12:04:44;;;;;;;2.03;0.80;;;20.50;64.50;;;;;;4812395;29;20204;-29
2023/09/21 12:07:19;;;;;;;2.80;0.98;;;20.50;64.60;;;;;;4812404;29;20229;-29
2023/09/21 12:09:51;;;;;;;4.22;1.10;;;20.40;64.60;;;;;;4799143;29;20728;-29
2023/09/21 12:12:21;;;;;;;3.70;1.25;;;20.40;64.70;;;;;;4812524;29;20220;-29
2023/09/21 12:14:51;;;;;;;2.30;1.00;;;20.40;64.70;;;;;;4797107;29;20327;-33
2023/09/21 12:17:20;;;;;;;2.45;1.08;;;20.40;64.80;;;;;;4812603;29;20631;-34
2023/09/21 12:19:50;;;;;;;2.35;1.00;;;20.30;64.80;;;;;;4797541;29;20592;-34
2023/09/21 12:22:17;;;;;;;1.60;0.73;;;20.30;64.90;;;;;;4797221;29;20212;-34
2023/09/21 12:24:49;;;;;;;1.80;0.80;;;20.30;65.00;;;;;;4812097;29;20240;-34
2023/09/21 12:27:19;;;;;;;3.08;1.20;;;20.30;64.90;;;;;;4799110;29;20229;-33
2023/09/21 12:29:52;;;;;;;2.95;1.02;;;20.30;64.90;;;;;;4798935;29;20701;-34
2023/09/21 12:32:22;;;;;;;2.10;0.70;;;20.30;64.80;;;;;;4812050;29;20261;-33
2023/09/21 12:34:49;;;;;;;2.92;0.80;;;20.20;64.80;;;;;;4798440;29;20240;-33
2023/09/21 12:37:18;;;;;;;2.20;0.60;;;20.20;64.90;;;;;;4812028;29;20209;-33
2023/09/21 12:39:45;;;;;;;3.17;1.05;;;20.20;65.00;;;;;;4799528;29;20588;-34
2023/09/21 12:42:14;;;;;;;1.50;0.80;;;20.10;65.00;;;;;;4802272;29;20294;-33
2023/09/21 12:44:42;;;;;;;3.97;0.90;;;20.10;65.10;;;;;;4801716;29;20252;-33
2023/09/21 12:47:12;;;;;;;1.95;1.10;;;20.10;65.10;;;;;;4815245;29;20764;-33
2023/09/21 12:49:41;;;;;;;2.22;0.80;;;20.10;65.10;;;;;;4800454;29;20217;-34
2023/09/21 12:52:09;;;;;;;2.10;1.00;;;20.10;65.10;;;;;;4800506;29;20747;-33
2023/09/21 12:54:36;;;;;;;1.73;0.90;;;20.10;65.20;;;;;;4785243;29;20629;-34
2023/09/21 12:57:03;;;;;;;1.25;0.88;;;20.10;65.30;;;;;;4785343;29;20213;-33
2023/09/21 12:59:35;;;;;;;3.03;1.23;;;20.00;65.20;;;;;;4815624;29;20882;-33
2023/09/21 13:02:05;;;;;;;3.10;1.00;;;20.00;65.30;;;;;;4802182;29;20270;-33